createdAt,value
2018-06-06T00:00:59.391Z,0.00
2018-06-06T00:01:59.397Z,0.00
2018-06-06T00:02:59.456Z,0.00
2018-06-06T00:03:59.486Z,0.00
2018-06-06T00:04:59.542Z,0.00
2018-06-06T00:05:59.576Z,0.00
2018-06-06T00:06:59.807Z,0.00
2018-06-06T00:07:59.661Z,0.00
2018-06-06T00:08:59.705Z,0.00
2018-06-06T00:09:59.751Z,0.00
2018-06-06T00:10:59.790Z,0.00
2018-06-06T00:11:59.822Z,0.00
2018-06-06T00:12:59.861Z,0.00
2018-06-06T00:13:59.926Z,0.00
2018-06-06T00:14:59.963Z,0.00
2018-06-06T00:16:00.023Z,0.00
2018-06-06T00:17:00.038Z,0.00
2018-06-06T00:18:00.284Z,0.00
2018-06-06T00:19:00.135Z,0.00
2018-06-06T00:20:00.192Z,0.00
2018-06-06T00:21:00.225Z,0.00
2018-06-06T00:22:00.248Z,0.00
2018-06-06T00:23:00.313Z,0.00
2018-06-06T00:24:00.345Z,0.00
2018-06-06T00:25:00.382Z,0.00
2018-06-06T00:26:00.436Z,0.00
2018-06-06T00:27:00.489Z,0.00
2018-06-06T00:28:00.515Z,0.00
2018-06-06T00:29:00.552Z,0.00
2018-06-06T00:30:00.799Z,0.00
2018-06-06T00:31:00.658Z,0.00
2018-06-06T00:32:00.686Z,0.00
2018-06-06T00:33:00.728Z,0.00
2018-06-06T00:34:00.761Z,0.00
2018-06-06T00:35:00.822Z,0.00
2018-06-06T00:36:00.845Z,0.00
2018-06-06T00:37:00.886Z,0.00
2018-06-06T00:38:00.939Z,0.00
2018-06-06T00:39:00.980Z,0.00
2018-06-06T00:40:01.018Z,0.00
2018-06-06T00:41:01.089Z,0.00
2018-06-06T00:42:01.303Z,0.00
2018-06-06T00:43:01.158Z,0.00
2018-06-06T00:44:01.190Z,0.00
2018-06-06T00:45:01.237Z,0.00
2018-06-06T00:46:01.260Z,0.00
2018-06-06T00:47:01.315Z,0.00
2018-06-06T00:48:01.361Z,0.00
2018-06-06T00:49:01.402Z,0.00
2018-06-06T00:50:01.453Z,0.00
2018-06-06T00:51:01.489Z,0.00
2018-06-06T00:52:01.538Z,0.00
2018-06-06T00:53:01.581Z,0.00
2018-06-06T00:54:01.604Z,0.00
2018-06-06T00:55:01.672Z,0.00
2018-06-06T00:56:01.721Z,0.00
2018-06-06T00:57:01.759Z,0.00
2018-06-06T00:58:01.785Z,0.00
2018-06-06T00:59:01.812Z,0.00
2018-06-06T01:00:01.883Z,0.00
2018-06-06T01:01:01.924Z,0.00
2018-06-06T01:02:01.967Z,0.00
2018-06-06T01:03:01.993Z,0.00
2018-06-06T01:04:02.024Z,0.00
2018-06-06T01:05:02.088Z,0.00
2018-06-06T01:06:02.138Z,0.00
2018-06-06T01:07:02.165Z,0.00
2018-06-06T01:08:02.222Z,0.00
2018-06-06T01:09:02.260Z,0.00
2018-06-06T01:10:02.281Z,0.00
2018-06-06T01:11:02.348Z,0.00
2018-06-06T01:12:02.378Z,0.00
2018-06-06T01:13:02.665Z,0.00
2018-06-06T01:14:02.482Z,0.00
2018-06-06T01:15:02.496Z,0.00
2018-06-06T01:16:02.555Z,0.00
2018-06-06T01:17:02.594Z,0.00
2018-06-06T01:18:02.630Z,0.00
2018-06-06T01:19:02.679Z,0.00
2018-06-06T01:20:02.719Z,0.00
2018-06-06T01:21:02.784Z,0.00
2018-06-06T01:22:02.796Z,0.00
2018-06-06T01:23:02.851Z,0.00
2018-06-06T01:24:02.885Z,0.00
2018-06-06T01:25:03.133Z,0.00
2018-06-06T01:26:02.985Z,0.00
2018-06-06T01:27:03.018Z,0.00
2018-06-06T01:28:03.071Z,0.00
2018-06-06T01:29:03.306Z,0.00
2018-06-06T01:30:03.136Z,0.00
2018-06-06T01:31:03.184Z,0.00
2018-06-06T01:32:03.233Z,0.00
2018-06-06T01:33:03.256Z,0.00
2018-06-06T01:34:03.316Z,0.00
2018-06-06T01:35:03.339Z,0.00
2018-06-06T01:36:03.391Z,0.00
2018-06-06T01:37:03.620Z,0.00
2018-06-06T01:38:03.474Z,0.00
2018-06-06T01:39:03.535Z,0.00
2018-06-06T01:40:03.559Z,0.00
2018-06-06T01:41:03.812Z,0.00
2018-06-06T01:42:03.678Z,0.00
2018-06-06T01:43:03.689Z,0.00
2018-06-06T01:44:03.721Z,0.00
2018-06-06T01:45:03.769Z,0.00
2018-06-06T01:46:03.805Z,0.00
2018-06-06T01:47:03.867Z,0.00
2018-06-06T01:48:03.916Z,0.00
2018-06-06T01:49:04.155Z,0.00
2018-06-06T01:50:04.005Z,0.00
2018-06-06T01:51:04.083Z,0.00
2018-06-06T01:52:04.087Z,0.00
2018-06-06T01:53:04.109Z,0.00
2018-06-06T01:54:04.184Z,0.00
2018-06-06T01:55:04.216Z,0.00
2018-06-06T01:56:04.245Z,0.00
2018-06-06T01:57:04.299Z,0.00
2018-06-06T01:58:04.339Z,0.00
2018-06-06T01:59:04.400Z,0.00
2018-06-06T02:00:04.413Z,0.00
2018-06-06T02:01:04.468Z,0.00
2018-06-06T02:02:04.495Z,0.00
2018-06-06T02:03:04.541Z,0.00
2018-06-06T02:04:04.596Z,0.00
2018-06-06T02:05:04.636Z,0.00
2018-06-06T02:06:04.668Z,0.00
2018-06-06T02:07:04.716Z,0.00
2018-06-06T02:08:04.748Z,0.00
2018-06-06T02:09:04.804Z,0.00
2018-06-06T02:10:04.849Z,0.00
2018-06-06T02:11:04.891Z,0.00
2018-06-06T02:12:04.933Z,0.00
2018-06-06T02:13:04.987Z,0.00
2018-06-06T02:14:05.013Z,0.00
2018-06-06T02:15:05.046Z,0.00
2018-06-06T02:16:05.097Z,0.00
2018-06-06T02:17:05.123Z,0.00
2018-06-06T02:18:05.167Z,0.00
2018-06-06T02:19:05.212Z,0.00
2018-06-06T02:20:05.279Z,0.00
2018-06-06T02:21:05.307Z,0.00
2018-06-06T02:22:05.369Z,0.00
2018-06-06T02:23:05.388Z,0.00
2018-06-06T02:24:05.419Z,0.00
2018-06-06T02:25:05.477Z,0.00
2018-06-06T02:26:05.526Z,0.00
2018-06-06T02:27:05.554Z,0.00
2018-06-06T02:28:05.627Z,0.00
2018-06-06T02:29:05.646Z,0.00
2018-06-06T02:30:05.687Z,0.00
2018-06-06T02:31:05.735Z,0.00
2018-06-06T02:32:05.768Z,0.00
2018-06-06T02:33:05.801Z,0.00
2018-06-06T02:34:06.074Z,0.00
2018-06-06T02:35:05.907Z,0.00
2018-06-06T02:36:05.967Z,0.00
2018-06-06T02:37:05.975Z,0.00
2018-06-06T02:38:06.021Z,0.00
2018-06-06T02:39:06.069Z,0.00
2018-06-06T02:40:06.106Z,0.00
2018-06-06T02:41:06.164Z,0.00
2018-06-06T02:42:06.206Z,0.00
2018-06-06T02:43:06.242Z,0.00
2018-06-06T02:44:06.267Z,0.00
2018-06-06T02:45:06.515Z,0.00
2018-06-06T02:46:06.366Z,0.00
2018-06-06T02:47:06.401Z,0.00
2018-06-06T02:48:06.457Z,0.00
2018-06-06T02:49:06.504Z,0.00
2018-06-06T02:50:06.529Z,0.00
2018-06-06T02:51:06.570Z,0.00
2018-06-06T02:52:06.629Z,0.00
2018-06-06T02:53:06.659Z,0.00
2018-06-06T02:54:06.712Z,0.00
2018-06-06T02:55:06.947Z,0.00
2018-06-06T02:56:06.802Z,0.00
2018-06-06T02:57:06.832Z,0.00
2018-06-06T02:58:06.882Z,0.00
2018-06-06T02:59:06.924Z,0.00
2018-06-06T03:00:06.960Z,0.00
2018-06-06T03:01:07.011Z,0.00
2018-06-06T03:02:07.064Z,0.00
2018-06-06T03:03:07.097Z,0.00
2018-06-06T03:04:07.149Z,0.00
2018-06-06T03:05:07.193Z,0.00
2018-06-06T03:06:07.217Z,0.00
2018-06-06T03:07:07.264Z,0.00
2018-06-06T03:08:07.326Z,0.00
2018-06-06T03:09:07.357Z,0.00
2018-06-06T03:10:07.387Z,0.00
2018-06-06T03:11:07.447Z,0.00
2018-06-06T03:12:07.481Z,0.00
2018-06-06T03:13:07.721Z,0.00
2018-06-06T03:14:07.558Z,0.00
2018-06-06T03:15:07.604Z,0.00
2018-06-06T03:16:07.649Z,0.00
2018-06-06T03:17:07.694Z,0.00
2018-06-06T03:18:07.714Z,0.00
2018-06-06T03:19:07.767Z,0.00
2018-06-06T03:20:07.823Z,0.00
2018-06-06T03:21:07.860Z,0.00
2018-06-06T03:22:07.915Z,0.00
2018-06-06T03:23:07.938Z,0.00
2018-06-06T03:24:07.981Z,0.00
2018-06-06T03:25:08.034Z,0.00
2018-06-06T03:26:08.085Z,0.00
2018-06-06T03:27:08.112Z,0.00
2018-06-06T03:28:08.137Z,0.00
2018-06-06T03:29:08.179Z,0.00
2018-06-06T03:30:08.256Z,0.00
2018-06-06T03:31:08.280Z,0.00
2018-06-06T03:32:08.323Z,0.00
2018-06-06T03:33:08.360Z,0.00
2018-06-06T03:34:08.411Z,0.00
2018-06-06T03:35:08.475Z,0.00
2018-06-06T03:36:10.185Z,0.00
2018-06-06T03:37:08.540Z,0.00
2018-06-06T03:38:08.577Z,0.00
2018-06-06T03:39:08.616Z,0.00
2018-06-06T03:40:08.666Z,0.00
2018-06-06T03:41:08.704Z,0.00
2018-06-06T03:42:08.744Z,0.00
2018-06-06T03:43:09.000Z,0.00
2018-06-06T03:44:08.828Z,0.00
2018-06-06T03:45:08.870Z,0.00
2018-06-06T03:46:08.903Z,0.00
2018-06-06T03:47:08.961Z,0.00
2018-06-06T03:48:09.110Z,0.00
2018-06-06T03:49:09.047Z,0.00
2018-06-06T03:50:09.100Z,0.00
2018-06-06T03:51:09.116Z,0.00
2018-06-06T03:52:09.175Z,0.00
2018-06-06T03:53:09.231Z,0.00
2018-06-06T03:54:09.391Z,0.00
2018-06-06T03:55:09.287Z,0.00
2018-06-06T03:56:09.341Z,0.00
2018-06-06T03:57:09.384Z,0.00
2018-06-06T03:58:09.422Z,0.00
2018-06-06T03:59:09.678Z,0.00
2018-06-06T04:00:09.516Z,0.00
2018-06-06T04:01:09.554Z,0.00
2018-06-06T04:02:09.660Z,0.00
2018-06-06T04:03:09.646Z,0.00
2018-06-06T04:04:09.712Z,0.00
2018-06-06T04:05:09.740Z,0.00
2018-06-06T04:06:09.791Z,0.00
2018-06-06T04:07:09.792Z,0.00
2018-06-06T04:08:09.852Z,0.00
2018-06-06T04:09:10.005Z,0.00
2018-06-06T04:10:10.143Z,0.00
2018-06-06T04:11:09.999Z,0.00
2018-06-06T04:12:10.043Z,0.00
2018-06-06T04:13:10.072Z,0.00
2018-06-06T04:14:10.110Z,0.00
2018-06-06T04:15:10.161Z,0.00
2018-06-06T04:16:10.287Z,0.00
2018-06-06T04:17:10.254Z,0.00
2018-06-06T04:18:10.301Z,0.00
2018-06-06T04:19:10.322Z,0.00
2018-06-06T04:20:10.377Z,0.00
2018-06-06T04:21:10.435Z,0.00
2018-06-06T04:22:10.461Z,0.00
2018-06-06T04:23:10.505Z,0.00
2018-06-06T04:24:10.537Z,0.00
2018-06-06T04:25:10.590Z,0.00
2018-06-06T04:28:10.721Z,0.00
2018-06-06T04:29:10.745Z,0.00
2018-06-06T04:30:10.812Z,0.00
2018-06-06T04:31:10.847Z,0.00
2018-06-06T04:32:10.895Z,0.00
2018-06-06T04:33:10.936Z,0.00
2018-06-06T04:34:10.996Z,0.00
2018-06-06T04:35:11.014Z,0.00
2018-06-06T04:36:11.069Z,0.00
2018-06-06T04:37:11.101Z,0.00
2018-06-06T04:38:11.339Z,0.00
2018-06-06T04:39:11.175Z,0.00
2018-06-06T04:40:11.275Z,0.00
2018-06-06T04:41:11.278Z,0.00
2018-06-06T04:42:11.341Z,0.00
2018-06-06T04:43:11.444Z,0.00
2018-06-06T04:44:11.406Z,0.00
2018-06-06T04:45:11.428Z,0.00
2018-06-06T04:46:11.473Z,0.00
2018-06-06T04:47:11.511Z,0.00
2018-06-06T04:48:11.569Z,0.00
2018-06-06T04:49:11.609Z,0.00
2018-06-06T04:50:11.654Z,0.00
2018-06-06T04:51:11.696Z,0.00
2018-06-06T04:52:11.730Z,0.00
2018-06-06T04:53:12.000Z,0.00
2018-06-06T04:54:11.829Z,0.00
2018-06-06T04:55:11.883Z,0.00
2018-06-06T04:56:11.921Z,0.00
2018-06-06T04:57:11.953Z,0.00
2018-06-06T04:58:12.096Z,0.00
2018-06-06T04:59:12.031Z,0.00
2018-06-06T05:00:12.101Z,0.00
2018-06-06T05:01:12.127Z,0.00
2018-06-06T05:02:12.161Z,0.00
2018-06-06T05:03:12.207Z,0.00
2018-06-06T05:04:12.452Z,0.00
2018-06-06T05:05:12.291Z,0.00
2018-06-06T05:06:12.350Z,0.00
2018-06-06T05:07:12.385Z,0.00
2018-06-06T05:08:12.452Z,0.00
2018-06-06T05:09:12.567Z,0.00
2018-06-06T05:10:12.538Z,0.00
2018-06-06T05:11:12.562Z,0.00
2018-06-06T05:12:12.588Z,0.00
2018-06-06T05:13:12.643Z,0.00
2018-06-06T05:14:12.711Z,0.00
2018-06-06T05:15:12.750Z,0.00
2018-06-06T05:16:12.884Z,0.00
2018-06-06T05:17:12.814Z,0.00
2018-06-06T05:18:12.880Z,0.00
2018-06-06T05:19:12.893Z,0.00
2018-06-06T05:20:12.943Z,0.00
2018-06-06T05:21:12.997Z,0.00
2018-06-06T05:22:13.023Z,0.00
2018-06-06T05:23:13.083Z,0.00
2018-06-06T05:24:13.110Z,0.00
2018-06-06T05:25:13.167Z,0.00
2018-06-06T05:26:13.402Z,0.00
2018-06-06T05:27:13.262Z,0.00
2018-06-06T05:28:13.301Z,0.00
2018-06-06T05:29:13.328Z,0.00
2018-06-06T05:30:13.365Z,0.00
2018-06-06T05:31:13.511Z,0.00
2018-06-06T05:32:13.464Z,0.00
2018-06-06T05:33:13.495Z,0.00
2018-06-06T05:34:13.539Z,0.00
2018-06-06T05:35:13.591Z,0.00
2018-06-06T05:36:13.624Z,0.00
2018-06-06T05:37:13.864Z,0.00
2018-06-06T05:38:13.717Z,0.00
2018-06-06T05:39:13.741Z,0.00
2018-06-06T05:40:13.800Z,0.00
2018-06-06T05:41:13.839Z,0.00
2018-06-06T05:42:13.889Z,0.00
2018-06-06T05:43:14.026Z,0.00
2018-06-06T05:44:13.947Z,0.00
2018-06-06T05:45:14.017Z,0.00
2018-06-06T05:46:14.052Z,0.00
2018-06-06T05:47:14.121Z,0.00
2018-06-06T05:48:14.121Z,0.00
2018-06-06T05:49:14.374Z,0.00
2018-06-06T05:50:14.222Z,0.00
2018-06-06T05:51:14.243Z,0.00
2018-06-06T05:52:14.316Z,0.00
2018-06-06T05:53:14.328Z,0.00
2018-06-06T05:54:14.372Z,0.00
2018-06-06T05:55:14.531Z,0.00
2018-06-06T05:56:14.456Z,0.00
2018-06-06T05:57:14.519Z,0.00
2018-06-06T05:58:14.574Z,0.00
2018-06-06T05:59:14.622Z,0.00
2018-06-06T06:00:14.848Z,0.00
2018-06-06T06:01:14.697Z,0.00
2018-06-06T06:02:14.728Z,0.00
2018-06-06T06:03:14.784Z,0.00
2018-06-06T06:04:14.798Z,0.00
2018-06-06T06:05:14.856Z,0.00
2018-06-06T06:06:14.896Z,0.00
2018-06-06T06:07:14.945Z,0.00
2018-06-06T06:08:14.987Z,0.00
2018-06-06T06:09:15.038Z,0.00
2018-06-06T06:10:15.185Z,0.00
2018-06-06T06:11:15.120Z,0.00
2018-06-06T06:12:15.153Z,0.00
2018-06-06T06:13:15.196Z,0.00
2018-06-06T06:14:15.245Z,0.00
2018-06-06T06:15:15.486Z,0.00
2018-06-06T06:16:15.353Z,0.00
2018-06-06T06:17:15.347Z,0.00
2018-06-06T06:18:15.418Z,0.00
2018-06-06T06:19:15.448Z,0.00
2018-06-06T06:20:15.484Z,0.00
2018-06-06T06:21:15.640Z,0.00
2018-06-06T06:22:15.561Z,0.00
2018-06-06T06:23:15.617Z,0.00
2018-06-06T06:24:15.736Z,0.00
2018-06-06T06:25:15.731Z,0.00
2018-06-06T06:26:15.740Z,0.00
2018-06-06T06:27:15.776Z,0.00
2018-06-06T06:28:15.831Z,0.00
2018-06-06T06:29:15.884Z,0.00
2018-06-06T06:30:15.962Z,0.00
2018-06-06T06:31:16.157Z,0.00
2018-06-06T06:32:16.017Z,0.00
2018-06-06T06:33:16.029Z,0.00
2018-06-06T06:34:16.105Z,0.00
2018-06-06T06:35:16.141Z,0.00
2018-06-06T06:36:16.272Z,0.00
2018-06-06T06:37:16.228Z,0.00
2018-06-06T06:38:16.265Z,0.00
2018-06-06T06:39:16.308Z,0.00
2018-06-06T06:40:16.365Z,0.00
2018-06-06T06:41:16.389Z,0.00
2018-06-06T06:42:16.434Z,0.00
2018-06-06T06:43:16.463Z,0.00
2018-06-06T06:44:16.504Z,0.00
2018-06-06T06:45:16.541Z,0.00
2018-06-06T06:46:16.811Z,0.00
2018-06-06T06:47:16.870Z,0.00
2018-06-06T06:48:16.702Z,0.00
2018-06-06T06:49:16.728Z,0.00
2018-06-06T06:50:16.782Z,0.00
2018-06-06T06:51:16.808Z,0.00
2018-06-06T06:52:16.859Z,0.00
2018-06-06T06:53:17.119Z,0.00
2018-06-06T06:54:16.965Z,0.00
2018-06-06T06:55:17.026Z,0.00
2018-06-06T06:56:17.044Z,0.00
2018-06-06T06:57:17.075Z,0.00
2018-06-06T06:58:17.225Z,0.00
2018-06-06T06:59:17.169Z,0.00
2018-06-06T07:00:17.199Z,0.00
2018-06-06T07:01:17.238Z,0.00
2018-06-06T07:02:17.286Z,0.00
2018-06-06T07:03:17.321Z,0.00
2018-06-06T07:04:17.578Z,0.00
2018-06-06T07:05:17.420Z,0.00
2018-06-06T07:06:17.467Z,0.00
2018-06-06T07:07:17.508Z,0.00
2018-06-06T07:08:17.532Z,0.00
2018-06-06T07:09:17.587Z,0.00
2018-06-06T07:10:17.729Z,0.00
2018-06-06T07:11:17.670Z,0.00
2018-06-06T07:12:17.711Z,0.00
2018-06-06T07:13:17.758Z,0.00
2018-06-06T07:14:17.818Z,0.00
2018-06-06T07:15:17.838Z,0.00
2018-06-06T07:16:19.301Z,0.00
2018-06-06T07:17:17.928Z,0.00
2018-06-06T07:18:17.976Z,0.00
2018-06-06T07:19:18.068Z,0.00
2018-06-06T07:20:18.057Z,0.00
2018-06-06T07:21:18.098Z,0.00
2018-06-06T07:22:18.251Z,0.00
2018-06-06T07:23:18.192Z,0.00
2018-06-06T07:24:18.224Z,0.00
2018-06-06T07:25:18.278Z,0.00
2018-06-06T07:26:18.316Z,0.00
2018-06-06T07:27:18.370Z,0.00
2018-06-06T07:28:19.913Z,0.00
2018-06-06T07:29:18.551Z,0.00
2018-06-06T07:30:18.478Z,0.00
2018-06-06T07:31:18.536Z,0.00
2018-06-06T07:32:18.571Z,0.00
2018-06-06T07:33:18.624Z,0.00
2018-06-06T07:34:18.668Z,0.00
2018-06-06T07:35:18.819Z,0.00
2018-06-06T07:36:18.747Z,0.00
2018-06-06T07:37:18.793Z,0.00
2018-06-06T07:38:18.839Z,0.00
2018-06-06T07:39:18.869Z,0.00
2018-06-06T07:40:19.113Z,0.00
2018-06-06T07:41:18.968Z,0.00
2018-06-06T07:42:19.019Z,0.00
2018-06-06T07:43:19.044Z,0.00
2018-06-06T07:44:19.124Z,0.00
2018-06-06T07:45:19.257Z,0.00
2018-06-06T07:46:19.278Z,0.00
2018-06-06T07:47:19.210Z,0.00
2018-06-06T07:48:19.251Z,0.00
2018-06-06T07:49:19.303Z,0.00
2018-06-06T07:50:19.352Z,0.00
2018-06-06T07:51:19.407Z,0.00
2018-06-06T07:52:19.439Z,0.00
2018-06-06T07:53:19.481Z,0.00
2018-06-06T07:54:19.533Z,0.00
2018-06-06T07:55:19.572Z,0.00
2018-06-06T07:56:19.705Z,0.00
2018-06-06T07:57:19.658Z,0.00
2018-06-06T07:58:19.695Z,0.00
2018-06-06T07:59:19.733Z,0.00
2018-06-06T08:00:19.781Z,0.00
2018-06-06T08:01:20.192Z,0.00
2018-06-06T08:02:19.981Z,0.00
2018-06-06T08:03:19.921Z,0.00
2018-06-06T08:04:19.952Z,0.00
2018-06-06T08:05:20.011Z,0.00
2018-06-06T08:06:20.048Z,0.00
2018-06-06T08:07:20.191Z,0.00
2018-06-06T08:08:20.131Z,0.00
2018-06-06T08:09:20.194Z,0.00
2018-06-06T08:10:20.233Z,0.00
2018-06-06T08:11:20.289Z,0.00
2018-06-06T08:12:20.296Z,0.00
2018-06-06T08:13:20.345Z,0.00
2018-06-06T08:14:20.400Z,0.00
2018-06-06T08:15:20.429Z,0.00
2018-06-06T08:16:20.489Z,0.00
2018-06-06T08:17:20.940Z,0.00
2018-06-06T08:18:20.560Z,0.00
2018-06-06T08:19:20.614Z,0.00
2018-06-06T08:20:20.671Z,0.00
2018-06-06T08:21:20.695Z,0.00
2018-06-06T08:22:20.849Z,0.00
2018-06-06T08:23:20.779Z,0.00
2018-06-06T08:24:20.826Z,0.00
2018-06-06T08:25:20.866Z,0.00
2018-06-06T08:26:20.910Z,0.00
2018-06-06T08:27:20.970Z,0.00
2018-06-06T08:28:21.224Z,0.00
2018-06-06T08:29:21.040Z,0.00
2018-06-06T08:30:21.162Z,0.00
2018-06-06T08:31:21.139Z,0.00
2018-06-06T08:32:21.185Z,0.00
2018-06-06T08:33:21.222Z,0.00
2018-06-06T08:34:21.356Z,0.00
2018-06-06T08:35:21.304Z,0.00
2018-06-06T08:36:21.361Z,0.00
2018-06-06T08:37:21.392Z,0.00
2018-06-06T08:38:21.430Z,0.00
2018-06-06T08:39:21.681Z,0.00
2018-06-06T08:40:21.525Z,0.00
2018-06-06T08:41:21.579Z,0.00
2018-06-06T08:42:21.619Z,0.00
2018-06-06T08:43:21.656Z,0.00
2018-06-06T08:44:21.711Z,0.00
2018-06-06T08:45:21.755Z,0.00
2018-06-06T08:46:21.772Z,0.00
2018-06-06T08:47:21.828Z,0.00
2018-06-06T08:48:21.877Z,0.00
2018-06-06T08:49:22.014Z,0.00
2018-06-06T08:50:22.155Z,0.00
2018-06-06T08:51:22.006Z,0.00
2018-06-06T08:52:22.034Z,0.00
2018-06-06T08:53:22.077Z,0.00
2018-06-06T08:54:22.143Z,0.00
2018-06-06T08:55:22.173Z,0.00
2018-06-06T08:56:22.230Z,0.00
2018-06-06T08:57:22.246Z,0.00
2018-06-06T08:58:22.305Z,0.00
2018-06-06T08:59:22.346Z,0.00
2018-06-06T09:00:22.485Z,0.00
2018-06-06T09:01:22.448Z,0.00
2018-06-06T09:02:22.491Z,0.00
2018-06-06T09:03:22.514Z,0.00
2018-06-06T09:04:22.560Z,0.00
2018-06-06T09:05:22.609Z,0.00
2018-06-06T09:06:22.667Z,0.00
2018-06-06T09:07:22.699Z,0.00
2018-06-06T09:08:22.751Z,0.00
2018-06-06T09:09:22.819Z,0.00
2018-06-06T09:10:22.934Z,0.00
2018-06-06T09:11:22.874Z,0.00
2018-06-06T09:12:22.910Z,0.00
2018-06-06T09:13:22.951Z,0.00
2018-06-06T09:14:22.996Z,0.00
2018-06-06T09:15:23.046Z,0.00
2018-06-06T09:16:23.085Z,0.00
2018-06-06T09:17:23.121Z,0.00
2018-06-06T09:18:23.171Z,0.00
2018-06-06T09:19:23.228Z,0.00
2018-06-06T09:20:23.457Z,0.00
2018-06-06T09:21:23.311Z,0.00
2018-06-06T09:22:23.355Z,4.00
2018-06-06T09:23:23.403Z,4.00
2018-06-06T09:24:23.430Z,4.00
2018-06-06T09:25:23.570Z,4.00
2018-06-06T09:26:23.560Z,4.00
2018-06-06T09:27:23.568Z,8.00
2018-06-06T09:28:23.630Z,8.00
2018-06-06T09:29:23.649Z,8.00
2018-06-06T09:30:23.689Z,12.00
2018-06-06T09:31:23.733Z,12.00
2018-06-06T09:32:23.797Z,12.00
2018-06-06T09:33:23.813Z,20.00
2018-06-06T09:34:23.880Z,20.00
2018-06-06T09:35:24.118Z,28.00
2018-06-06T09:36:24.048Z,32.00
2018-06-06T09:37:23.988Z,44.00
2018-06-06T09:38:24.019Z,60.00
2018-06-06T09:39:24.072Z,76.00
2018-06-06T09:40:24.126Z,92.00
2018-06-06T09:41:24.177Z,112.00
2018-06-06T09:42:24.210Z,128.00
2018-06-06T09:43:24.259Z,144.00
2018-06-06T09:44:24.303Z,156.00
2018-06-06T09:45:24.339Z,168.00
2018-06-06T09:46:24.505Z,180.00
2018-06-06T09:47:24.447Z,204.00
2018-06-06T09:48:24.469Z,236.00
2018-06-06T09:49:24.503Z,252.00
2018-06-06T09:50:24.545Z,244.00
2018-06-06T09:51:24.590Z,228.00
2018-06-06T09:52:24.853Z,228.00
2018-06-06T09:53:24.704Z,236.00
2018-06-06T09:54:24.735Z,248.00
2018-06-06T09:55:24.772Z,316.00
2018-06-06T09:56:24.817Z,452.00
2018-06-06T09:57:24.958Z,580.00
2018-06-06T09:58:24.904Z,604.00
2018-06-06T09:59:24.948Z,624.00
2018-06-06T10:00:24.979Z,676.00
2018-06-06T10:01:25.028Z,776.00
2018-06-06T10:02:25.088Z,840.00
2018-06-06T10:03:25.100Z,808.00
2018-06-06T10:04:25.160Z,692.00
2018-06-06T10:05:25.205Z,568.00
2018-06-06T10:06:25.260Z,588.00
2018-06-06T10:07:25.298Z,688.00
2018-06-06T10:08:25.420Z,728.00
2018-06-06T10:09:25.402Z,764.00
2018-06-06T10:10:25.426Z,828.00
2018-06-06T10:11:25.473Z,992.00
2018-06-06T10:12:25.533Z,1168.00
2018-06-06T10:13:25.570Z,1240.00
2018-06-06T10:14:25.590Z,1220.00
2018-06-06T10:15:25.650Z,1236.00
2018-06-06T10:16:25.673Z,1212.00
2018-06-06T10:17:25.730Z,1200.00
2018-06-06T10:18:25.871Z,1132.00
2018-06-06T10:19:25.807Z,1092.00
2018-06-06T10:20:25.866Z,1096.00
2018-06-06T10:21:25.903Z,1068.00
2018-06-06T10:22:25.941Z,976.00
2018-06-06T10:23:25.981Z,908.00
2018-06-06T10:24:26.023Z,1100.00
2018-06-06T10:25:26.182Z,1620.00
2018-06-06T10:26:26.128Z,1992.00
2018-06-06T10:27:26.202Z,2124.00
2018-06-06T10:28:26.207Z,2248.00
2018-06-06T10:29:26.247Z,2444.00
2018-06-06T10:30:26.315Z,2616.00
2018-06-06T10:31:26.365Z,2736.00
2018-06-06T10:32:26.396Z,2920.00
2018-06-06T10:33:26.432Z,3336.00
2018-06-06T10:34:26.487Z,3948.00
2018-06-06T10:35:26.626Z,4576.00
2018-06-06T10:36:26.557Z,4612.00
2018-06-06T10:37:26.593Z,4104.00
2018-06-06T10:38:26.662Z,3488.00
2018-06-06T10:39:26.685Z,3408.00
2018-06-06T10:40:26.756Z,3508.00
2018-06-06T10:41:27.011Z,3768.00
2018-06-06T10:42:26.831Z,4032.00
2018-06-06T10:43:26.873Z,4100.00
2018-06-06T10:44:26.918Z,4120.00
2018-06-06T10:45:26.971Z,4068.00
2018-06-06T10:46:27.013Z,4028.00
2018-06-06T10:47:27.167Z,4500.00
2018-06-06T10:48:27.102Z,4956.00
2018-06-06T10:49:27.155Z,6172.00
2018-06-06T10:50:27.177Z,5448.00
2018-06-06T10:51:27.219Z,5756.00
2018-06-06T10:52:27.276Z,6060.00
2018-06-06T10:53:27.302Z,6716.00
2018-06-06T10:54:27.345Z,7728.00
2018-06-06T10:55:27.407Z,7692.00
2018-06-06T10:56:27.453Z,7768.00
2018-06-06T10:57:27.588Z,7940.00
2018-06-06T10:58:27.536Z,8568.00
2018-06-06T10:59:27.579Z,9484.00
2018-06-06T11:00:27.621Z,10340.00
2018-06-06T11:01:27.658Z,15264.00
2018-06-06T11:02:27.711Z,18240.00
2018-06-06T11:03:27.781Z,15232.00
2018-06-06T11:04:27.815Z,16864.00
2018-06-06T11:05:27.857Z,18240.00
2018-06-06T11:06:27.896Z,14456.00
2018-06-06T11:07:28.046Z,14456.00
2018-06-06T11:08:27.979Z,14280.00
2018-06-06T11:09:28.017Z,13324.00
2018-06-06T11:10:28.074Z,11636.00
2018-06-06T11:11:28.150Z,12756.00
2018-06-06T11:12:28.178Z,13732.00
2018-06-06T11:13:28.330Z,10556.00
2018-06-06T11:14:28.259Z,8232.00
2018-06-06T11:15:28.306Z,8244.00
2018-06-06T11:16:28.370Z,9992.00
2018-06-06T11:17:28.425Z,13348.00
2018-06-06T11:18:28.445Z,13880.00
2018-06-06T11:19:28.474Z,12620.00
2018-06-06T11:20:28.545Z,15168.00
2018-06-06T11:21:28.585Z,11796.00
2018-06-06T11:22:28.628Z,10780.00
2018-06-06T11:23:28.766Z,10056.00
2018-06-06T11:24:28.724Z,9596.00
2018-06-06T11:25:28.761Z,10456.00
2018-06-06T11:26:28.827Z,15072.00
2018-06-06T11:27:28.850Z,10188.00
2018-06-06T11:28:28.915Z,10756.00
2018-06-06T11:29:28.958Z,11612.00
2018-06-06T11:30:29.014Z,12252.00
2018-06-06T11:31:29.057Z,12756.00
2018-06-06T11:32:29.097Z,14236.00
2018-06-06T11:33:29.249Z,15680.00
2018-06-06T11:34:29.202Z,15848.00
2018-06-06T11:35:29.241Z,14480.00
2018-06-06T11:36:29.283Z,13068.00
2018-06-06T11:37:29.324Z,12328.00
2018-06-06T11:38:29.367Z,11840.00
2018-06-06T11:39:29.412Z,10784.00
2018-06-06T11:40:29.564Z,10232.00
2018-06-06T11:41:29.516Z,9780.00
2018-06-06T11:42:29.554Z,9916.00
2018-06-06T11:43:29.615Z,9876.00
2018-06-06T11:44:29.654Z,10568.00
2018-06-06T11:45:29.721Z,11680.00
2018-06-06T11:46:29.950Z,12832.00
2018-06-06T11:47:29.781Z,13644.00
2018-06-06T11:48:29.826Z,13688.00
2018-06-06T11:49:29.892Z,13712.00
2018-06-06T11:50:29.933Z,21088.00
2018-06-06T11:51:29.978Z,12656.00
2018-06-06T11:52:30.246Z,12104.00
2018-06-06T11:53:30.073Z,11668.00
2018-06-06T11:54:30.118Z,11064.00
2018-06-06T11:55:30.162Z,10004.00
2018-06-06T11:56:30.216Z,8864.00
2018-06-06T11:57:30.270Z,8404.00
2018-06-06T11:58:30.506Z,9584.00
2018-06-06T11:59:30.366Z,8604.00
2018-06-06T12:00:30.389Z,8500.00
2018-06-06T12:01:30.457Z,8320.00
2018-06-06T12:02:30.477Z,8600.00
2018-06-06T12:03:30.549Z,8448.00
2018-06-06T12:04:30.679Z,7944.00
2018-06-06T12:05:30.629Z,7100.00
2018-06-06T12:06:30.691Z,7008.00
2018-06-06T12:07:30.732Z,7312.00
2018-06-06T12:08:30.813Z,8168.00
2018-06-06T12:09:30.805Z,8196.00
2018-06-06T12:10:31.051Z,8016.00
2018-06-06T12:11:30.917Z,8564.00
2018-06-06T12:12:30.951Z,9524.00
2018-06-06T12:13:31.017Z,10276.00
2018-06-06T12:14:31.039Z,11140.00
2018-06-06T12:15:31.085Z,12536.00
2018-06-06T12:16:31.137Z,13756.00
2018-06-06T12:17:31.194Z,15052.00
2018-06-06T12:18:31.244Z,17472.00
2018-06-06T12:19:31.303Z,19360.00
2018-06-06T12:20:31.430Z,20928.00
2018-06-06T12:21:31.370Z,19904.00
2018-06-06T12:22:31.415Z,18048.00
2018-06-06T12:23:31.474Z,15404.00
2018-06-06T12:24:31.499Z,13160.00
2018-06-06T12:25:31.563Z,12072.00
2018-06-06T12:26:31.607Z,12336.00
2018-06-06T12:27:31.659Z,13712.00
2018-06-06T12:28:31.713Z,16112.00
2018-06-06T12:29:31.775Z,17600.00
2018-06-06T12:30:31.809Z,19648.00
2018-06-06T12:31:31.852Z,16780.00
2018-06-06T12:32:31.904Z,16296.00
2018-06-06T12:33:32.048Z,17984.00
2018-06-06T12:34:31.999Z,38272.00
2018-06-06T12:35:32.047Z,18432.00
2018-06-06T12:36:32.076Z,18592.00
2018-06-06T12:37:32.126Z,27520.00
2018-06-06T12:38:32.281Z,28544.00
2018-06-06T12:39:32.254Z,35264.00
2018-06-06T12:40:32.269Z,34400.00
2018-06-06T12:41:32.309Z,44288.00
2018-06-06T12:42:32.354Z,42336.00
2018-06-06T12:43:32.414Z,54816.00
2018-06-06T12:44:32.467Z,35392.00
2018-06-06T12:45:32.914Z,24928.00
2018-06-06T12:46:32.554Z,50912.00
2018-06-06T12:47:32.615Z,38368.00
2018-06-06T12:48:32.663Z,45248.00
2018-06-06T12:49:32.715Z,24736.00
2018-06-06T12:50:32.768Z,24288.00
2018-06-06T12:51:32.895Z,26144.00
2018-06-06T12:52:32.854Z,27200.00
2018-06-06T12:53:32.914Z,27008.00
2018-06-06T12:54:32.968Z,26784.00
2018-06-06T12:55:33.031Z,33984.00
2018-06-06T12:56:33.119Z,29152.00
2018-06-06T12:57:33.310Z,24544.00
2018-06-06T12:58:33.175Z,21888.00
2018-06-06T12:59:33.214Z,27968.00